sensor_id;sensor_type;location;lat;lon;timestamp;P1;durP1;ratioP1;P2;durP2;ratioP2
71941;SDS011;59997;53.300;-6.260;2022-07-23T00:01:23;4.57;;;0.90;;
71941;SDS011;59997;53.300;-6.260;2022-07-23T00:03:49;6.03;;;0.90;;
71941;SDS011;59997;53.300;-6.260;2022-07-23T00:06:17;5.15;;;0.73;;
71941;SDS011;59997;53.300;-6.260;2022-07-23T00:08:42;4.22;;;0.70;;
71941;SDS011;59997;53.300;-6.260;2022-07-23T00:11:09;4.60;;;0.80;;
71941;SDS011;59997;53.300;-6.260;2022-07-23T00:13:35;4.65;;;0.82;;
71941;SDS011;59997;53.300;-6.260;2022-07-23T00:16:01;4.70;;;0.90;;
71941;SDS011;59997;53.300;-6.260;2022-07-23T00:18:28;4.40;;;1.10;;
71941;SDS011;59997;53.300;-6.260;2022-07-23T00:20:54;7.03;;;0.80;;
71941;SDS011;59997;53.300;-6.260;2022-07-23T00:23:19;5.30;;;1.00;;
71941;SDS011;59997;53.300;-6.260;2022-07-23T00:25:46;4.83;;;0.90;;
71941;SDS011;59997;53.300;-6.260;2022-07-23T00:28:12;5.13;;;1.00;;
71941;SDS011;59997;53.300;-6.260;2022-07-23T00:30:38;5.30;;;0.80;;
71941;SDS011;59997;53.300;-6.260;2022-07-23T00:33:05;6.10;;;1.10;;
71941;SDS011;59997;53.300;-6.260;2022-07-23T00:35:35;6.60;;;1.10;;
71941;SDS011;59997;53.300;-6.260;2022-07-23T00:38:17;4.50;;;0.85;;
71941;SDS011;59997;53.300;-6.260;2022-07-23T00:40:43;4.97;;;1.27;;
71941;SDS011;59997;53.300;-6.260;2022-07-23T00:43:09;4.70;;;1.07;;
71941;SDS011;59997;53.300;-6.260;2022-07-23T00:45:35;5.00;;;1.30;;
71941;SDS011;59997;53.300;-6.260;2022-07-23T00:48:01;5.32;;;1.13;;
71941;SDS011;59997;53.300;-6.260;2022-07-23T00:50:27;6.32;;;1.10;;
71941;SDS011;59997;53.300;-6.260;2022-07-23T00:52:54;4.90;;;1.30;;
71941;SDS011;59997;53.300;-6.260;2022-07-23T00:55:20;5.63;;;1.33;;
71941;SDS011;59997;53.300;-6.260;2022-07-23T00:57:46;6.72;;;1.52;;
71941;SDS011;59997;53.300;-6.260;2022-07-23T01:00:13;6.80;;;1.70;;
71941;SDS011;59997;53.300;-6.260;2022-07-23T01:02:40;5.45;;;1.52;;
71941;SDS011;59997;53.300;-6.260;2022-07-23T01:05:06;5.78;;;1.77;;
71941;SDS011;59997;53.300;-6.260;2022-07-23T01:07:33;9.00;;;2.20;;
71941;SDS011;59997;53.300;-6.260;2022-07-23T01:09:59;6.00;;;1.98;;
71941;SDS011;59997;53.300;-6.260;2022-07-23T01:12:25;5.43;;;1.67;;
71941;SDS011;59997;53.300;-6.260;2022-07-23T01:14:57;7.80;;;2.00;;
71941;SDS011;59997;53.300;-6.260;2022-07-23T01:17:23;7.00;;;2.38;;
71941;SDS011;59997;53.300;-6.260;2022-07-23T01:19:50;7.13;;;2.03;;
71941;SDS011;59997;53.300;-6.260;2022-07-23T01:22:17;6.22;;;2.20;;
71941;SDS011;59997;53.300;-6.260;2022-07-23T01:24:44;5.85;;;1.90;;
71941;SDS011;59997;53.300;-6.260;2022-07-23T01:27:10;6.17;;;1.90;;
71941;SDS011;59997;53.300;-6.260;2022-07-23T01:29:38;5.80;;;1.70;;
71941;SDS011;59997;53.300;-6.260;2022-07-23T01:32:04;6.53;;;2.13;;
71941;SDS011;59997;53.300;-6.260;2022-07-23T01:34:30;6.03;;;2.03;;
71941;SDS011;59997;53.300;-6.260;2022-07-23T01:36:56;8.10;;;1.95;;
71941;SDS011;59997;53.300;-6.260;2022-07-23T01:39:22;7.07;;;1.87;;
71941;SDS011;59997;53.300;-6.260;2022-07-23T01:41:48;6.20;;;2.20;;
71941;SDS011;59997;53.300;-6.260;2022-07-23T01:44:13;6.03;;;2.03;;
71941;SDS011;59997;53.300;-6.260;2022-07-23T01:46:40;5.97;;;2.07;;
71941;SDS011;59997;53.300;-6.260;2022-07-23T01:49:06;6.65;;;1.85;;
71941;SDS011;59997;53.300;-6.260;2022-07-23T01:51:32;5.72;;;1.67;;
71941;SDS011;59997;53.300;-6.260;2022-07-23T01:53:58;6.60;;;1.80;;
71941;SDS011;59997;53.300;-6.260;2022-07-23T01:56:24;7.47;;;1.90;;
71941;SDS011;59997;53.300;-6.260;2022-07-23T01:58:50;5.80;;;1.80;;
71941;SDS011;59997;53.300;-6.260;2022-07-23T02:01:16;7.13;;;1.80;;
71941;SDS011;59997;53.300;-6.260;2022-07-23T02:03:42;6.15;;;1.70;;
71941;SDS011;59997;53.300;-6.260;2022-07-23T02:06:08;5.63;;;1.80;;
71941;SDS011;59997;53.300;-6.260;2022-07-23T02:08:33;6.88;;;2.28;;
71941;SDS011;59997;53.300;-6.260;2022-07-23T02:11:00;6.03;;;1.70;;
71941;SDS011;59997;53.300;-6.260;2022-07-23T02:13:26;6.18;;;1.73;;
71941;SDS011;59997;53.300;-6.260;2022-07-23T02:15:52;5.72;;;1.73;;
71941;SDS011;59997;53.300;-6.260;2022-07-23T02:18:17;5.27;;;1.70;;
71941;SDS011;59997;53.300;-6.260;2022-07-23T02:20:43;7.47;;;2.00;;
71941;SDS011;59997;53.300;-6.260;2022-07-23T02:23:10;5.27;;;1.57;;
71941;SDS011;59997;53.300;-6.260;2022-07-23T02:25:35;6.45;;;1.80;;
71941;SDS011;59997;53.300;-6.260;2022-07-23T02:28:01;5.87;;;1.70;;
71941;SDS011;59997;53.300;-6.260;2022-07-23T02:30:28;5.37;;;1.50;;
71941;SDS011;59997;53.300;-6.260;2022-07-23T02:32:55;5.88;;;1.60;;
71941;SDS011;59997;53.300;-6.260;2022-07-23T02:35:21;6.95;;;2.00;;
71941;SDS011;59997;53.300;-6.260;2022-07-23T02:37:48;5.40;;;1.70;;
71941;SDS011;59997;53.300;-6.260;2022-07-23T02:40:14;6.35;;;1.60;;
71941;SDS011;59997;53.300;-6.260;2022-07-23T02:42:40;4.77;;;1.20;;
71941;SDS011;59997;53.300;-6.260;2022-07-23T02:45:06;6.28;;;1.75;;
71941;SDS011;59997;53.300;-6.260;2022-07-23T02:47:32;5.70;;;1.60;;
71941;SDS011;59997;53.300;-6.260;2022-07-23T02:49:58;7.65;;;1.73;;
71941;SDS011;59997;53.300;-6.260;2022-07-23T02:52:25;7.20;;;1.67;;
71941;SDS011;59997;53.300;-6.260;2022-07-23T02:54:51;6.68;;;1.98;;
71941;SDS011;59997;53.300;-6.260;2022-07-23T02:57:16;8.13;;;1.80;;
71941;SDS011;59997;53.300;-6.260;2022-07-23T02:59:43;6.20;;;1.60;;
71941;SDS011;59997;53.300;-6.260;2022-07-23T03:02:09;5.55;;;1.67;;
71941;SDS011;59997;53.300;-6.260;2022-07-23T03:04:35;6.13;;;1.80;;
71941;SDS011;59997;53.300;-6.260;2022-07-23T03:07:00;7.65;;;1.92;;
71941;SDS011;59997;53.300;-6.260;2022-07-23T03:09:26;6.90;;;1.70;;
71941;SDS011;59997;53.300;-6.260;2022-07-23T03:11:52;7.07;;;2.13;;
71941;SDS011;59997;53.300;-6.260;2022-07-23T03:14:17;6.37;;;1.97;;
71941;SDS011;59997;53.300;-6.260;2022-07-23T03:16:42;6.83;;;2.20;;
71941;SDS011;59997;53.300;-6.260;2022-07-23T03:19:09;6.07;;;1.73;;
71941;SDS011;59997;53.300;-6.260;2022-07-23T03:21:35;6.20;;;1.95;;
71941;SDS011;59997;53.300;-6.260;2022-07-23T03:24:05;7.25;;;2.28;;
71941;SDS011;59997;53.300;-6.260;2022-07-23T03:26:32;7.07;;;2.23;;
71941;SDS011;59997;53.300;-6.260;2022-07-23T03:28:58;8.55;;;2.50;;
71941;SDS011;59997;53.300;-6.260;2022-07-23T03:31:23;7.43;;;3.13;;
71941;SDS011;59997;53.300;-6.260;2022-07-23T03:33:49;7.03;;;2.20;;
71941;SDS011;59997;53.300;-6.260;2022-07-23T03:36:15;7.67;;;2.23;;
71941;SDS011;59997;53.300;-6.260;2022-07-23T03:38:41;7.50;;;2.60;;
71941;SDS011;59997;53.300;-6.260;2022-07-23T03:41:07;8.15;;;2.38;;
71941;SDS011;59997;53.300;-6.260;2022-07-23T03:43:33;7.57;;;2.40;;
71941;SDS011;59997;53.300;-6.260;2022-07-23T03:45:59;7.10;;;2.30;;
71941;SDS011;59997;53.300;-6.260;2022-07-23T03:48:25;8.83;;;2.63;;
71941;SDS011;59997;53.300;-6.260;2022-07-23T03:50:50;7.88;;;2.47;;
71941;SDS011;59997;53.300;-6.260;2022-07-23T03:53:16;9.00;;;2.33;;
71941;SDS011;59997;53.300;-6.260;2022-07-23T03:55:41;8.77;;;2.65;;
71941;SDS011;59997;53.300;-6.260;2022-07-23T03:58:07;7.00;;;2.87;;
71941;SDS011;59997;53.300;-6.260;2022-07-23T04:00:34;6.65;;;2.03;;
71941;SDS011;59997;53.300;-6.260;2022-07-23T04:02:59;8.85;;;2.45;;
71941;SDS011;59997;53.300;-6.260;2022-07-23T04:05:26;6.70;;;2.47;;
71941;SDS011;59997;53.300;-6.260;2022-07-23T04:07:51;7.90;;;2.60;;
71941;SDS011;59997;53.300;-6.260;2022-07-23T04:10:17;7.50;;;2.40;;
71941;SDS011;59997;53.300;-6.260;2022-07-23T04:12:45;8.82;;;2.42;;
71941;SDS011;59997;53.300;-6.260;2022-07-23T04:15:10;6.57;;;2.10;;
71941;SDS011;59997;53.300;-6.260;2022-07-23T04:17:35;8.80;;;2.40;;
71941;SDS011;59997;53.300;-6.260;2022-07-23T04:20:02;7.37;;;2.77;;
71941;SDS011;59997;53.300;-6.260;2022-07-23T04:22:29;8.15;;;2.63;;
71941;SDS011;59997;53.300;-6.260;2022-07-23T04:24:55;6.93;;;2.60;;
71941;SDS011;59997;53.300;-6.260;2022-07-23T04:27:20;7.45;;;2.80;;
71941;SDS011;59997;53.300;-6.260;2022-07-23T04:29:46;8.90;;;2.70;;
71941;SDS011;59997;53.300;-6.260;2022-07-23T04:32:12;6.97;;;2.37;;
71941;SDS011;59997;53.300;-6.260;2022-07-23T04:34:37;7.43;;;2.72;;
71941;SDS011;59997;53.300;-6.260;2022-07-23T04:37:02;7.93;;;2.80;;
71941;SDS011;59997;53.300;-6.260;2022-07-23T04:39:29;9.00;;;2.87;;
71941;SDS011;59997;53.300;-6.260;2022-07-23T04:41:54;6.70;;;2.67;;
71941;SDS011;59997;53.300;-6.260;2022-07-23T04:44:20;8.30;;;2.77;;
71941;SDS011;59997;53.300;-6.260;2022-07-23T04:46:47;8.70;;;3.40;;
71941;SDS011;59997;53.300;-6.260;2022-07-23T04:49:12;7.55;;;2.63;;
71941;SDS011;59997;53.300;-6.260;2022-07-23T04:51:38;8.07;;;2.77;;
71941;SDS011;59997;53.300;-6.260;2022-07-23T04:54:04;7.07;;;2.65;;
71941;SDS011;59997;53.300;-6.260;2022-07-23T04:56:30;8.63;;;2.92;;
71941;SDS011;59997;53.300;-6.260;2022-07-23T04:58:56;9.00;;;3.00;;
71941;SDS011;59997;53.300;-6.260;2022-07-23T05:01:22;7.32;;;2.78;;
71941;SDS011;59997;53.300;-6.260;2022-07-23T05:03:48;9.40;;;2.83;;
71941;SDS011;59997;53.300;-6.260;2022-07-23T05:06:14;8.20;;;2.72;;
71941;SDS011;59997;53.300;-6.260;2022-07-23T05:08:40;9.57;;;3.00;;
71941;SDS011;59997;53.300;-6.260;2022-07-23T05:11:05;8.00;;;2.97;;
71941;SDS011;59997;53.300;-6.260;2022-07-23T05:13:31;7.63;;;2.83;;
71941;SDS011;59997;53.300;-6.260;2022-07-23T05:15:56;8.37;;;3.07;;
71941;SDS011;59997;53.300;-6.260;2022-07-23T05:18:22;6.85;;;2.78;;
71941;SDS011;59997;53.300;-6.260;2022-07-23T05:20:48;8.07;;;3.00;;
71941;SDS011;59997;53.300;-6.260;2022-07-23T05:23:14;9.13;;;2.83;;
71941;SDS011;59997;53.300;-6.260;2022-07-23T05:25:40;9.27;;;3.20;;
71941;SDS011;59997;53.300;-6.260;2022-07-23T05:28:06;7.97;;;3.28;;
71941;SDS011;59997;53.300;-6.260;2022-07-23T05:30:32;10.63;;;3.50;;
71941;SDS011;59997;53.300;-6.260;2022-07-23T05:32:57;9.15;;;3.10;;
71941;SDS011;59997;53.300;-6.260;2022-07-23T05:35:23;7.93;;;2.93;;
71941;SDS011;59997;53.300;-6.260;2022-07-23T05:37:49;8.43;;;2.90;;
71941;SDS011;59997;53.300;-6.260;2022-07-23T05:40:17;9.80;;;3.17;;
71941;SDS011;59997;53.300;-6.260;2022-07-23T05:42:43;9.67;;;3.63;;
71941;SDS011;59997;53.300;-6.260;2022-07-23T05:45:10;10.45;;;3.53;;
71941;SDS011;59997;53.300;-6.260;2022-07-23T05:47:54;10.47;;;3.50;;
71941;SDS011;59997;53.300;-6.260;2022-07-23T05:50:19;10.57;;;3.53;;
71941;SDS011;59997;53.300;-6.260;2022-07-23T05:52:46;8.85;;;3.65;;
71941;SDS011;59997;53.300;-6.260;2022-07-23T05:55:12;9.23;;;3.20;;
71941;SDS011;59997;53.300;-6.260;2022-07-23T05:57:39;10.33;;;3.40;;
71941;SDS011;59997;53.300;-6.260;2022-07-23T06:00:05;10.48;;;4.03;;
71941;SDS011;59997;53.300;-6.260;2022-07-23T06:02:33;10.75;;;4.10;;
71941;SDS011;59997;53.300;-6.260;2022-07-23T06:04:59;9.80;;;3.78;;
71941;SDS011;59997;53.300;-6.260;2022-07-23T06:07:25;9.97;;;3.27;;
71941;SDS011;59997;53.300;-6.260;2022-07-23T06:09:51;10.27;;;3.47;;
71941;SDS011;59997;53.300;-6.260;2022-07-23T06:12:18;12.48;;;4.15;;
71941;SDS011;59997;53.300;-6.260;2022-07-23T06:14:43;11.40;;;4.13;;
71941;SDS011;59997;53.300;-6.260;2022-07-23T06:17:09;10.73;;;3.95;;
71941;SDS011;59997;53.300;-6.260;2022-07-23T06:19:35;12.65;;;3.78;;
71941;SDS011;59997;53.300;-6.260;2022-07-23T06:22:02;9.77;;;3.90;;
71941;SDS011;59997;53.300;-6.260;2022-07-23T06:24:28;13.30;;;3.78;;
71941;SDS011;59997;53.300;-6.260;2022-07-23T06:26:54;13.63;;;3.85;;
71941;SDS011;59997;53.300;-6.260;2022-07-23T06:29:20;9.98;;;3.70;;
71941;SDS011;59997;53.300;-6.260;2022-07-23T06:31:46;8.43;;;3.47;;
71941;SDS011;59997;53.300;-6.260;2022-07-23T06:34:12;11.35;;;3.90;;
71941;SDS011;59997;53.300;-6.260;2022-07-23T06:36:37;8.70;;;3.93;;
71941;SDS011;59997;53.300;-6.260;2022-07-23T06:39:03;10.03;;;3.63;;
71941;SDS011;59997;53.300;-6.260;2022-07-23T06:41:29;9.77;;;3.63;;
71941;SDS011;59997;53.300;-6.260;2022-07-23T06:43:54;11.00;;;3.93;;
71941;SDS011;59997;53.300;-6.260;2022-07-23T06:46:20;11.53;;;4.07;;
71941;SDS011;59997;53.300;-6.260;2022-07-23T06:48:46;10.77;;;4.00;;
71941;SDS011;59997;53.300;-6.260;2022-07-23T06:51:13;9.52;;;3.35;;
71941;SDS011;59997;53.300;-6.260;2022-07-23T06:53:38;9.83;;;3.40;;
71941;SDS011;59997;53.300;-6.260;2022-07-23T06:56:04;9.63;;;3.45;;
71941;SDS011;59997;53.300;-6.260;2022-07-23T06:58:30;8.57;;;3.75;;
71941;SDS011;59997;53.300;-6.260;2022-07-23T07:00:56;12.03;;;4.30;;
71941;SDS011;59997;53.300;-6.260;2022-07-23T07:03:22;11.27;;;3.78;;
71941;SDS011;59997;53.300;-6.260;2022-07-23T07:05:48;9.75;;;4.05;;
71941;SDS011;59997;53.300;-6.260;2022-07-23T07:08:15;9.68;;;3.72;;
71941;SDS011;59997;53.300;-6.260;2022-07-23T07:10:40;9.83;;;3.73;;
71941;SDS011;59997;53.300;-6.260;2022-07-23T07:13:06;8.35;;;3.60;;
71941;SDS011;59997;53.300;-6.260;2022-07-23T07:15:32;9.00;;;3.60;;
71941;SDS011;59997;53.300;-6.260;2022-07-23T07:17:58;9.88;;;3.95;;
71941;SDS011;59997;53.300;-6.260;2022-07-23T07:20:24;10.63;;;3.53;;
71941;SDS011;59997;53.300;-6.260;2022-07-23T07:22:50;12.77;;;4.00;;
71941;SDS011;59997;53.300;-6.260;2022-07-23T07:25:16;9.40;;;4.28;;
71941;SDS011;59997;53.300;-6.260;2022-07-23T07:27:42;10.50;;;3.97;;
71941;SDS011;59997;53.300;-6.260;2022-07-23T07:30:09;8.40;;;3.87;;
71941;SDS011;59997;53.300;-6.260;2022-07-23T07:32:36;9.05;;;3.67;;
71941;SDS011;59997;53.300;-6.260;2022-07-23T07:35:03;11.00;;;3.90;;
71941;SDS011;59997;53.300;-6.260;2022-07-23T07:37:29;11.27;;;3.58;;
71941;SDS011;59997;53.300;-6.260;2022-07-23T07:39:55;8.63;;;3.53;;
71941;SDS011;59997;53.300;-6.260;2022-07-23T07:42:21;8.75;;;3.10;;
71941;SDS011;59997;53.300;-6.260;2022-07-23T07:44:46;7.90;;;2.87;;
71941;SDS011;59997;53.300;-6.260;2022-07-23T07:47:12;6.97;;;2.60;;
71941;SDS011;59997;53.300;-6.260;2022-07-23T07:49:41;8.23;;;2.33;;
71941;SDS011;59997;53.300;-6.260;2022-07-23T07:52:07;6.40;;;2.53;;
71941;SDS011;59997;53.300;-6.260;2022-07-23T07:54:33;6.25;;;2.30;;
71941;SDS011;59997;53.300;-6.260;2022-07-23T07:56:59;7.43;;;2.77;;
71941;SDS011;59997;53.300;-6.260;2022-07-23T07:59:25;6.07;;;2.33;;
71941;SDS011;59997;53.300;-6.260;2022-07-23T08:01:51;7.45;;;2.85;;
71941;SDS011;59997;53.300;-6.260;2022-07-23T08:04:17;6.57;;;2.20;;
71941;SDS011;59997;53.300;-6.260;2022-07-23T08:06:43;7.03;;;2.40;;
71941;SDS011;59997;53.300;-6.260;2022-07-23T08:09:09;6.75;;;1.88;;
71941;SDS011;59997;53.300;-6.260;2022-07-23T08:11:35;6.97;;;2.13;;
71941;SDS011;59997;53.300;-6.260;2022-07-23T08:14:00;6.47;;;2.30;;
71941;SDS011;59997;53.300;-6.260;2022-07-23T08:16:26;6.47;;;2.03;;
71941;SDS011;59997;53.300;-6.260;2022-07-23T08:18:52;7.35;;;2.15;;
71941;SDS011;59997;53.300;-6.260;2022-07-23T08:21:18;7.95;;;2.00;;
71941;SDS011;59997;53.300;-6.260;2022-07-23T08:23:44;7.10;;;2.17;;
71941;SDS011;59997;53.300;-6.260;2022-07-23T08:26:10;5.75;;;2.05;;
71941;SDS011;59997;53.300;-6.260;2022-07-23T08:28:36;5.68;;;1.98;;
71941;SDS011;59997;53.300;-6.260;2022-07-23T08:31:02;7.00;;;2.20;;
71941;SDS011;59997;53.300;-6.260;2022-07-23T08:33:30;5.55;;;1.90;;
71941;SDS011;59997;53.300;-6.260;2022-07-23T08:35:57;6.27;;;1.73;;
71941;SDS011;59997;53.300;-6.260;2022-07-23T08:38:23;6.70;;;1.95;;
71941;SDS011;59997;53.300;-6.260;2022-07-23T08:40:54;8.25;;;2.22;;
71941;SDS011;59997;53.300;-6.260;2022-07-23T08:43:23;6.60;;;2.00;;
71941;SDS011;59997;53.300;-6.260;2022-07-23T08:45:52;6.70;;;2.30;;
71941;SDS011;59997;53.300;-6.260;2022-07-23T08:48:25;8.33;;;2.40;;
71941;SDS011;59997;53.300;-6.260;2022-07-23T08:50:54;7.93;;;2.20;;
71941;SDS011;59997;53.300;-6.260;2022-07-23T08:53:22;7.82;;;2.13;;
71941;SDS011;59997;53.300;-6.260;2022-07-23T08:55:49;6.25;;;1.80;;
71941;SDS011;59997;53.300;-6.260;2022-07-23T08:58:17;5.80;;;2.10;;
71941;SDS011;59997;53.300;-6.260;2022-07-23T09:00:44;6.57;;;2.20;;
71941;SDS011;59997;53.300;-6.260;2022-07-23T09:03:15;6.20;;;1.90;;
71941;SDS011;59997;53.300;-6.260;2022-07-23T09:05:53;5.93;;;1.90;;
71941;SDS011;59997;53.300;-6.260;2022-07-23T09:08:23;5.50;;;1.65;;
71941;SDS011;59997;53.300;-6.260;2022-07-23T09:10:58;6.80;;;1.60;;
71941;SDS011;59997;53.300;-6.260;2022-07-23T09:13:38;5.07;;;1.50;;
71941;SDS011;59997;53.300;-6.260;2022-07-23T09:16:17;6.22;;;1.60;;
71941;SDS011;59997;53.300;-6.260;2022-07-23T09:18:54;6.60;;;1.48;;
71941;SDS011;59997;53.300;-6.260;2022-07-23T09:21:22;4.78;;;1.08;;
71941;SDS011;59997;53.300;-6.260;2022-07-23T09:24:11;5.57;;;1.30;;
71941;SDS011;59997;53.300;-6.260;2022-07-23T09:26:45;5.47;;;1.57;;
71941;SDS011;59997;53.300;-6.260;2022-07-23T09:29:13;5.57;;;1.52;;
71941;SDS011;59997;53.300;-6.260;2022-07-23T09:37:12;6.85;;;1.50;;
71941;SDS011;59997;53.300;-6.260;2022-07-23T09:39:41;4.40;;;1.00;;
71941;SDS011;59997;53.300;-6.260;2022-07-23T09:42:16;4.50;;;1.00;;
71941;SDS011;59997;53.300;-6.260;2022-07-23T09:44:49;4.07;;;0.80;;
71941;SDS011;59997;53.300;-6.260;2022-07-23T09:47:18;5.30;;;0.90;;
71941;SDS011;59997;53.300;-6.260;2022-07-23T09:52:35;4.20;;;0.70;;
71941;SDS011;59997;53.300;-6.260;2022-07-23T09:55:07;4.60;;;0.82;;
71941;SDS011;59997;53.300;-6.260;2022-07-23T09:57:34;4.75;;;0.65;;
71941;SDS011;59997;53.300;-6.260;2022-07-23T10:00:01;3.92;;;0.70;;
71941;SDS011;59997;53.300;-6.260;2022-07-23T10:02:32;4.60;;;1.00;;
71941;SDS011;59997;53.300;-6.260;2022-07-23T10:04:59;5.90;;;0.80;;
71941;SDS011;59997;53.300;-6.260;2022-07-23T10:07:27;3.83;;;0.80;;
71941;SDS011;59997;53.300;-6.260;2022-07-23T10:09:58;3.78;;;0.88;;
71941;SDS011;59997;53.300;-6.260;2022-07-23T10:12:25;4.20;;;1.00;;
71941;SDS011;59997;53.300;-6.260;2022-07-23T10:15:04;3.65;;;0.70;;
71941;SDS011;59997;53.300;-6.260;2022-07-23T10:17:35;4.63;;;1.07;;
71941;SDS011;59997;53.300;-6.260;2022-07-23T10:20:00;4.93;;;0.80;;
71941;SDS011;59997;53.300;-6.260;2022-07-23T10:22:28;6.88;;;1.27;;
71941;SDS011;59997;53.300;-6.260;2022-07-23T10:28:02;4.55;;;0.80;;
71941;SDS011;59997;53.300;-6.260;2022-07-23T10:36:15;5.22;;;0.90;;
71941;SDS011;59997;53.300;-6.260;2022-07-23T10:38:56;4.90;;;0.77;;
71941;SDS011;59997;53.300;-6.260;2022-07-23T10:41:35;5.80;;;0.70;;
71941;SDS011;59997;53.300;-6.260;2022-07-23T10:44:11;4.20;;;0.83;;
71941;SDS011;59997;53.300;-6.260;2022-07-23T10:49:31;4.20;;;0.90;;
71941;SDS011;59997;53.300;-6.260;2022-07-23T10:52:17;4.10;;;0.70;;
71941;SDS011;59997;53.300;-6.260;2022-07-23T10:57:17;4.77;;;0.70;;
71941;SDS011;59997;53.300;-6.260;2022-07-23T11:02:44;3.80;;;0.90;;
71941;SDS011;59997;53.300;-6.260;2022-07-23T11:05:13;3.13;;;0.50;;
71941;SDS011;59997;53.300;-6.260;2022-07-23T11:26:44;4.30;;;0.85;;
71941;SDS011;59997;53.300;-6.260;2022-07-23T11:34:55;4.20;;;1.63;;
71941;SDS011;59997;53.300;-6.260;2022-07-23T11:37:37;4.60;;;1.67;;
71941;SDS011;59997;53.300;-6.260;2022-07-23T11:40:06;4.38;;;1.52;;
71941;SDS011;59997;53.300;-6.260;2022-07-23T11:42:37;5.60;;;1.88;;
71941;SDS011;59997;53.300;-6.260;2022-07-23T11:45:21;4.20;;;1.60;;
71941;SDS011;59997;53.300;-6.260;2022-07-23T11:47:48;5.47;;;2.08;;
71941;SDS011;59997;53.300;-6.260;2022-07-23T11:50:14;4.60;;;1.80;;
71941;SDS011;59997;53.300;-6.260;2022-07-23T11:52:39;4.80;;;1.93;;
71941;SDS011;59997;53.300;-6.260;2022-07-23T11:55:06;4.20;;;1.80;;
71941;SDS011;59997;53.300;-6.260;2022-07-23T11:57:35;4.35;;;1.50;;
71941;SDS011;59997;53.300;-6.260;2022-07-23T12:00:13;4.57;;;1.60;;
71941;SDS011;59997;53.300;-6.260;2022-07-23T12:02:55;4.20;;;1.70;;
71941;SDS011;59997;53.300;-6.260;2022-07-23T12:05:33;4.72;;;1.42;;
71941;SDS011;59997;53.300;-6.260;2022-07-23T12:08:01;4.20;;;1.30;;
71941;SDS011;59997;53.300;-6.260;2022-07-23T12:13:04;4.85;;;1.40;;
71941;SDS011;59997;53.300;-6.260;2022-07-23T12:15:38;4.83;;;1.60;;
71941;SDS011;59997;53.300;-6.260;2022-07-23T12:18:10;4.18;;;1.60;;
71941;SDS011;59997;53.300;-6.260;2022-07-23T12:20:40;4.45;;;1.90;;
71941;SDS011;59997;53.300;-6.260;2022-07-23T12:23:09;5.05;;;1.70;;
71941;SDS011;59997;53.300;-6.260;2022-07-23T12:25:38;4.00;;;1.50;;
71941;SDS011;59997;53.300;-6.260;2022-07-23T12:30:54;4.40;;;1.98;;
71941;SDS011;59997;53.300;-6.260;2022-07-23T12:33:31;5.55;;;1.75;;
71941;SDS011;59997;53.300;-6.260;2022-07-23T12:36:03;4.10;;;1.40;;
71941;SDS011;59997;53.300;-6.260;2022-07-23T12:38:41;4.20;;;1.13;;
71941;SDS011;59997;53.300;-6.260;2022-07-23T12:41:09;3.90;;;1.00;;
71941;SDS011;59997;53.300;-6.260;2022-07-23T12:43:37;3.90;;;1.05;;
71941;SDS011;59997;53.300;-6.260;2022-07-23T12:48:31;3.97;;;1.03;;
71941;SDS011;59997;53.300;-6.260;2022-07-23T12:53:45;3.90;;;1.00;;
71941;SDS011;59997;53.300;-6.260;2022-07-23T12:56:32;3.90;;;1.05;;
71941;SDS011;59997;53.300;-6.260;2022-07-23T12:59:07;4.20;;;1.30;;
71941;SDS011;59997;53.300;-6.260;2022-07-23T13:01:42;5.70;;;1.20;;
71941;SDS011;59997;53.300;-6.260;2022-07-23T13:04:28;3.70;;;0.90;;
71941;SDS011;59997;53.300;-6.260;2022-07-23T13:06:59;4.20;;;1.20;;
71941;SDS011;59997;53.300;-6.260;2022-07-23T13:09:27;4.45;;;0.80;;
71941;SDS011;59997;53.300;-6.260;2022-07-23T13:11:54;4.50;;;1.00;;
71941;SDS011;59997;53.300;-6.260;2022-07-23T13:14:21;4.03;;;0.70;;
71941;SDS011;59997;53.300;-6.260;2022-07-23T13:16:47;3.75;;;0.90;;
71941;SDS011;59997;53.300;-6.260;2022-07-23T13:19:15;4.15;;;0.60;;
71941;SDS011;59997;53.300;-6.260;2022-07-23T13:21:41;4.38;;;1.13;;
71941;SDS011;59997;53.300;-6.260;2022-07-23T13:24:09;4.23;;;1.47;;
71941;SDS011;59997;53.300;-6.260;2022-07-23T13:26:36;5.40;;;1.70;;
71941;SDS011;59997;53.300;-6.260;2022-07-23T13:29:03;4.53;;;1.60;;
71941;SDS011;59997;53.300;-6.260;2022-07-23T13:31:30;4.13;;;1.25;;
71941;SDS011;59997;53.300;-6.260;2022-07-23T13:33:56;4.50;;;1.00;;
71941;SDS011;59997;53.300;-6.260;2022-07-23T13:36:23;5.90;;;1.23;;
71941;SDS011;59997;53.300;-6.260;2022-07-23T13:38:49;4.20;;;0.90;;
71941;SDS011;59997;53.300;-6.260;2022-07-23T13:41:16;4.90;;;1.10;;
71941;SDS011;59997;53.300;-6.260;2022-07-23T13:43:43;5.63;;;1.20;;
71941;SDS011;59997;53.300;-6.260;2022-07-23T13:46:09;6.10;;;1.15;;
71941;SDS011;59997;53.300;-6.260;2022-07-23T13:48:34;4.95;;;1.05;;
71941;SDS011;59997;53.300;-6.260;2022-07-23T13:51:00;4.73;;;0.87;;
71941;SDS011;59997;53.300;-6.260;2022-07-23T13:53:26;6.03;;;0.97;;
71941;SDS011;59997;53.300;-6.260;2022-07-23T13:55:53;5.30;;;0.90;;
71941;SDS011;59997;53.300;-6.260;2022-07-23T13:58:19;5.20;;;1.13;;
71941;SDS011;59997;53.300;-6.260;2022-07-23T14:00:47;5.95;;;1.10;;
71941;SDS011;59997;53.300;-6.260;2022-07-23T14:03:15;6.80;;;0.90;;
71941;SDS011;59997;53.300;-6.260;2022-07-23T14:05:42;5.93;;;1.00;;
71941;SDS011;59997;53.300;-6.260;2022-07-23T14:08:08;5.10;;;0.85;;
71941;SDS011;59997;53.300;-6.260;2022-07-23T14:10:34;5.65;;;1.27;;
71941;SDS011;59997;53.300;-6.260;2022-07-23T14:13:00;7.78;;;1.30;;
71941;SDS011;59997;53.300;-6.260;2022-07-23T14:15:27;4.60;;;1.17;;
71941;SDS011;59997;53.300;-6.260;2022-07-23T14:17:55;7.50;;;1.38;;
71941;SDS011;59997;53.300;-6.260;2022-07-23T14:20:21;5.07;;;1.27;;
71941;SDS011;59997;53.300;-6.260;2022-07-23T14:22:47;5.13;;;0.85;;
71941;SDS011;59997;53.300;-6.260;2022-07-23T14:25:14;4.88;;;0.90;;
71941;SDS011;59997;53.300;-6.260;2022-07-23T14:27:42;4.67;;;0.90;;
71941;SDS011;59997;53.300;-6.260;2022-07-23T14:30:10;3.75;;;0.82;;
71941;SDS011;59997;53.300;-6.260;2022-07-23T14:32:36;3.10;;;0.60;;
71941;SDS011;59997;53.300;-6.260;2022-07-23T14:35:02;5.70;;;1.45;;
71941;SDS011;59997;53.300;-6.260;2022-07-23T14:37:29;3.85;;;1.27;;
71941;SDS011;59997;53.300;-6.260;2022-07-23T14:39:55;5.20;;;0.90;;
71941;SDS011;59997;53.300;-6.260;2022-07-23T14:42:20;3.60;;;0.90;;
71941;SDS011;59997;53.300;-6.260;2022-07-23T14:44:46;3.40;;;0.73;;
71941;SDS011;59997;53.300;-6.260;2022-07-23T14:47:12;3.40;;;0.68;;
71941;SDS011;59997;53.300;-6.260;2022-07-23T14:49:38;3.20;;;0.67;;
71941;SDS011;59997;53.300;-6.260;2022-07-23T14:52:04;3.60;;;0.77;;
71941;SDS011;59997;53.300;-6.260;2022-07-23T14:54:30;3.67;;;0.60;;
71941;SDS011;59997;53.300;-6.260;2022-07-23T14:56:57;3.63;;;0.80;;
71941;SDS011;59997;53.300;-6.260;2022-07-23T14:59:23;5.32;;;0.85;;
71941;SDS011;59997;53.300;-6.260;2022-07-23T15:01:50;4.15;;;0.90;;
71941;SDS011;59997;53.300;-6.260;2022-07-23T15:04:18;2.88;;;0.55;;
71941;SDS011;59997;53.300;-6.260;2022-07-23T15:06:44;2.97;;;0.60;;
71941;SDS011;59997;53.300;-6.260;2022-07-23T15:09:10;3.63;;;0.70;;
71941;SDS011;59997;53.300;-6.260;2022-07-23T15:11:36;3.30;;;0.60;;
71941;SDS011;59997;53.300;-6.260;2022-07-23T15:14:03;4.47;;;1.20;;
71941;SDS011;59997;53.300;-6.260;2022-07-23T15:16:29;5.72;;;1.23;;
71941;SDS011;59997;53.300;-6.260;2022-07-23T15:18:56;3.40;;;0.70;;
71941;SDS011;59997;53.300;-6.260;2022-07-23T15:21:22;5.28;;;0.80;;
71941;SDS011;59997;53.300;-6.260;2022-07-23T15:23:48;3.45;;;0.82;;
71941;SDS011;59997;53.300;-6.260;2022-07-23T15:26:14;3.53;;;0.53;;
71941;SDS011;59997;53.300;-6.260;2022-07-23T15:28:40;3.38;;;0.80;;
71941;SDS011;59997;53.300;-6.260;2022-07-23T15:31:07;3.35;;;0.80;;
71941;SDS011;59997;53.300;-6.260;2022-07-23T15:33:33;3.10;;;0.60;;
71941;SDS011;59997;53.300;-6.260;2022-07-23T15:35:59;3.58;;;0.70;;